createdAt,value
2022-11-24T00:02:12.236Z,5.32
2022-11-24T00:05:15.276Z,5.34
2022-11-24T00:08:18.576Z,5.11
2022-11-24T00:11:24.501Z,5.16
2022-11-24T00:14:27.450Z,5.39
2022-11-24T00:17:30.416Z,5.47
2022-11-24T00:20:33.055Z,5.26
2022-11-24T00:23:36.334Z,5.27
2022-11-24T00:26:39.054Z,5.23
2022-11-24T00:29:41.989Z,5.20
2022-11-24T00:32:44.650Z,5.17
2022-11-24T00:35:55.116Z,5.18
2022-11-24T00:39:05.967Z,5.30
2022-11-24T00:42:08.845Z,5.26
2022-11-24T00:45:14.065Z,5.15
2022-11-24T00:48:17.410Z,5.23
2022-11-24T00:51:22.317Z,5.25
2022-11-24T00:54:25.342Z,5.18
2022-11-24T00:57:29.245Z,5.03
2022-11-24T01:00:32.153Z,5.04
2022-11-24T01:03:36.826Z,5.15
2022-11-24T01:06:39.785Z,5.15
2022-11-24T01:09:43.433Z,5.16
2022-11-24T01:12:46.574Z,5.13
2022-11-24T01:15:49.242Z,4.99
2022-11-24T01:18:53.652Z,4.98
2022-11-24T01:21:56.313Z,4.94
2022-11-24T01:24:59.368Z,4.90
2022-11-24T01:28:02.462Z,4.89
2022-11-24T01:31:07.580Z,4.84
2022-11-24T01:34:10.228Z,4.89
2022-11-24T01:37:13.218Z,4.88
2022-11-24T01:40:16.147Z,4.81
2022-11-24T01:43:21.549Z,4.69
2022-11-24T01:46:42.166Z,4.69
2022-11-24T01:49:59.140Z,4.72
2022-11-24T01:53:02.314Z,4.67
2022-11-24T01:56:06.787Z,4.60
2022-11-24T01:59:14.505Z,4.62
2022-11-24T02:02:18.083Z,4.56
2022-11-24T02:05:28.604Z,4.53
2022-11-24T02:08:40.697Z,4.51
2022-11-24T02:11:44.790Z,4.57
2022-11-24T02:14:47.785Z,4.61
2022-11-24T02:17:50.629Z,4.57
2022-11-24T02:20:53.575Z,4.50
2022-11-24T02:24:12.388Z,4.59
2022-11-24T02:27:15.291Z,4.58
2022-11-24T02:30:18.222Z,4.61
2022-11-24T02:33:22.497Z,4.54
2022-11-24T02:36:25.285Z,4.50
2022-11-24T02:39:28.290Z,4.43
2022-11-24T02:42:36.164Z,4.43
2022-11-24T02:45:39.485Z,4.37
2022-11-24T02:48:42.131Z,4.42
2022-11-24T02:51:45.122Z,4.47
2022-11-24T02:54:49.814Z,4.50
2022-11-24T02:57:52.765Z,4.51
2022-11-24T03:00:57.449Z,4.58
2022-11-24T03:04:00.671Z,4.48
2022-11-24T03:07:03.419Z,4.46
2022-11-24T03:10:07.928Z,4.38
2022-11-24T03:13:10.814Z,4.55
2022-11-24T03:16:13.747Z,4.50
2022-11-24T03:19:16.429Z,4.61
2022-11-24T03:22:20.950Z,4.65
2022-11-24T03:25:23.863Z,4.76
2022-11-24T03:28:28.179Z,4.81
2022-11-24T03:31:30.857Z,4.78
2022-11-24T03:34:34.295Z,4.80
2022-11-24T03:37:37.521Z,4.73
2022-11-24T03:40:40.512Z,4.82
2022-11-24T03:43:44.295Z,4.85
2022-11-24T03:46:47.492Z,4.82
2022-11-24T03:49:50.128Z,4.78
2022-11-24T03:52:53.222Z,4.92
2022-11-24T03:55:56.355Z,4.76
2022-11-24T03:58:59.318Z,4.75
2022-11-24T04:02:02.053Z,4.82
2022-11-24T04:05:05.947Z,4.92
2022-11-24T04:08:08.956Z,4.74
2022-11-24T04:11:31.752Z,4.86
2022-11-24T04:14:34.927Z,4.80
2022-11-24T04:17:38.296Z,4.83
2022-11-24T04:20:42.195Z,4.77
2022-11-24T04:23:45.122Z,4.71
2022-11-24T04:26:47.870Z,4.74
2022-11-24T04:29:51.326Z,4.69
2022-11-24T04:32:55.346Z,4.72
2022-11-24T04:35:58.221Z,4.78
2022-11-24T04:39:23.768Z,4.79
2022-11-24T04:42:23.656Z,4.91
2022-11-24T04:45:26.516Z,4.90
2022-11-24T04:48:29.902Z,4.95
2022-11-24T04:51:32.541Z,4.97
2022-11-24T04:54:35.796Z,4.89
2022-11-24T04:57:39.300Z,4.73
2022-11-24T05:00:42.236Z,4.83
2022-11-24T05:03:44.887Z,4.83
2022-11-24T05:06:48.074Z,4.72
2022-11-24T05:10:09.069Z,4.76
2022-11-24T05:13:13.239Z,4.73
2022-11-24T05:16:16.020Z,4.80
2022-11-24T05:19:19.020Z,4.71
2022-11-24T05:22:22.881Z,4.69
2022-11-24T05:25:25.725Z,4.68
2022-11-24T05:28:28.782Z,4.65
2022-11-24T05:31:31.715Z,4.70
2022-11-24T05:34:36.178Z,4.69
2022-11-24T05:37:39.302Z,4.65
2022-11-24T05:40:44.173Z,4.65
2022-11-24T05:43:47.046Z,4.66
2022-11-24T05:46:52.841Z,4.63
2022-11-24T05:49:55.773Z,4.62
2022-11-24T05:53:03.134Z,4.56
2022-11-24T05:56:06.390Z,4.61
2022-11-24T05:59:10.135Z,4.48
2022-11-24T06:02:20.915Z,4.55
2022-11-24T06:05:23.911Z,4.51
2022-11-24T06:08:30.905Z,4.56
2022-11-24T06:11:34.294Z,4.56
2022-11-24T06:14:37.165Z,4.46
2022-11-24T06:17:40.433Z,4.44
2022-11-24T06:20:53.136Z,4.45
2022-11-24T06:24:06.344Z,4.42
2022-11-24T06:27:09.042Z,4.33
2022-11-24T06:30:12.748Z,4.33
2022-11-24T06:33:15.390Z,4.35
2022-11-24T06:36:18.372Z,4.27
2022-11-24T06:39:20.881Z,4.30
2022-11-24T06:42:23.819Z,4.28
2022-11-24T06:45:26.564Z,4.39
2022-11-24T06:48:30.191Z,4.40
2022-11-24T06:51:32.750Z,4.44
2022-11-24T06:54:35.949Z,4.46
2022-11-24T06:57:38.883Z,4.46
2022-11-24T07:00:42.112Z,4.47
2022-11-24T07:03:45.568Z,4.44
2022-11-24T07:06:48.469Z,4.47
2022-11-24T07:09:51.066Z,4.52
2022-11-24T07:12:53.988Z,4.54
2022-11-24T07:15:56.637Z,4.52
2022-11-24T07:19:00.021Z,4.51
2022-11-24T07:22:02.880Z,4.61
2022-11-24T07:25:07.637Z,4.64
2022-11-24T07:28:10.208Z,4.65
2022-11-24T07:31:15.859Z,4.72
2022-11-24T07:34:18.523Z,4.74
2022-11-24T07:37:22.842Z,4.74
2022-11-24T07:40:27.494Z,4.79
2022-11-24T07:43:36.297Z,4.89
2022-11-24T07:46:39.297Z,4.87
2022-11-24T07:49:42.206Z,4.95
2022-11-24T07:52:44.735Z,5.00
2022-11-24T07:56:00.470Z,5.02
2022-11-24T07:59:03.750Z,5.02
2022-11-24T08:02:06.780Z,5.01
2022-11-24T08:05:09.695Z,5.04
2022-11-24T08:08:12.343Z,5.08
2022-11-24T08:11:17.908Z,5.11
2022-11-24T08:14:20.643Z,5.17
2022-11-24T08:17:23.591Z,5.19
2022-11-24T08:20:26.234Z,5.29
2022-11-24T08:23:30.139Z,5.25
2022-11-24T08:26:32.706Z,5.25
2022-11-24T08:29:35.546Z,5.19
2022-11-24T08:32:38.179Z,5.23
2022-11-24T08:35:41.027Z,5.24
2022-11-24T08:38:44.881Z,5.22
2022-11-24T08:41:48.003Z,5.33
2022-11-24T08:44:58.539Z,5.31
2022-11-24T08:48:01.811Z,5.37
2022-11-24T08:51:13.108Z,5.38
2022-11-24T08:54:18.774Z,5.44
2022-11-24T08:57:22.012Z,5.34
2022-11-24T09:00:25.297Z,5.48
2022-11-24T09:03:27.885Z,5.56
2022-11-24T09:06:32.050Z,5.67
2022-11-24T09:09:34.660Z,5.78
2022-11-24T09:12:37.537Z,5.67
2022-11-24T09:15:40.032Z,5.81
2022-11-24T09:18:43.400Z,5.74
2022-11-24T09:21:46.003Z,6.22
2022-11-24T09:24:48.966Z,6.32
2022-11-24T09:27:51.730Z,6.59
2022-11-24T09:30:54.720Z,6.57
2022-11-24T09:33:57.933Z,6.86
2022-11-24T09:37:01.637Z,6.89
2022-11-24T09:40:04.714Z,6.94
2022-11-24T09:43:20.239Z,6.87
2022-11-24T09:46:36.207Z,7.12
2022-11-24T09:50:14.998Z,8.05
2022-11-24T09:53:26.755Z,9.11
2022-11-24T09:56:34.615Z,8.60
2022-11-24T09:59:37.925Z,8.46
2022-11-24T10:02:40.973Z,8.54
2022-11-24T10:05:45.498Z,8.11
2022-11-24T10:09:06.780Z,8.30
2022-11-24T10:12:35.716Z,8.37
2022-11-24T10:15:49.102Z,8.33
2022-11-24T10:19:05.036Z,8.54
2022-11-24T10:22:39.343Z,8.15
2022-11-24T10:25:51.144Z,7.73
2022-11-24T10:28:56.069Z,7.59
2022-11-24T10:31:59.251Z,7.58
2022-11-24T10:35:18.163Z,7.60
2022-11-24T10:38:32.290Z,7.72
2022-11-24T10:42:05.863Z,7.60
2022-11-24T10:45:15.214Z,7.62
2022-11-24T10:48:24.463Z,7.73
2022-11-24T10:52:02.259Z,7.80
2022-11-24T10:55:06.313Z,8.05
2022-11-24T10:58:17.202Z,8.48
2022-11-24T11:01:28.835Z,8.41
2022-11-24T11:04:34.914Z,8.16
2022-11-24T11:07:37.544Z,8.18
2022-11-24T11:10:41.871Z,8.06
2022-11-24T11:14:03.082Z,8.16
2022-11-24T11:17:45.411Z,8.13
2022-11-24T11:20:54.537Z,8.12
2022-11-24T11:23:58.308Z,8.07
2022-11-24T11:27:03.357Z,8.08
2022-11-24T11:34:09.548Z,7.99
2022-11-24T11:37:18.362Z,8.08
2022-11-24T11:43:36.172Z,8.69
2022-11-24T11:46:38.716Z,9.00
2022-11-24T11:49:41.714Z,9.75
2022-11-24T11:53:02.596Z,9.64
2022-11-24T11:56:26.741Z,9.66
2022-11-24T12:00:10.244Z,9.84
2022-11-24T12:03:36.289Z,10.32
2022-11-24T12:06:48.193Z,11.07
2022-11-24T12:09:57.652Z,11.86
2022-11-24T12:13:26.723Z,10.84
2022-11-24T12:16:32.611Z,10.23
2022-11-24T12:19:49.146Z,9.43
2022-11-24T12:23:36.635Z,8.95
2022-11-24T12:26:46.607Z,8.63
2022-11-24T12:30:25.706Z,8.27
2022-11-24T12:33:52.309Z,7.91
2022-11-24T12:37:27.992Z,7.82
2022-11-24T12:40:35.970Z,7.94
2022-11-24T12:43:42.105Z,8.09
2022-11-24T12:47:03.111Z,8.45
2022-11-24T12:50:17.831Z,9.12
2022-11-24T12:53:25.844Z,9.19
2022-11-24T12:56:58.082Z,8.96
2022-11-24T13:00:14.636Z,8.83
2022-11-24T13:03:53.105Z,9.13
2022-11-24T13:07:26.240Z,9.01
2022-11-24T13:10:57.328Z,8.84
2022-11-24T13:14:12.203Z,8.69
2022-11-24T13:17:50.269Z,8.51
2022-11-24T13:20:57.236Z,8.44
2022-11-24T13:24:04.771Z,8.87
2022-11-24T13:27:13.575Z,8.77
2022-11-24T13:30:35.128Z,8.53
2022-11-24T13:33:39.164Z,8.44
2022-11-24T13:36:53.829Z,8.27
2022-11-24T13:39:58.732Z,8.09
2022-11-24T13:43:02.837Z,7.79
2022-11-24T13:46:09.966Z,7.65
2022-11-24T13:49:14.769Z,7.52
2022-11-24T13:52:36.228Z,7.39
2022-11-24T13:55:42.051Z,7.24
2022-11-24T13:58:50.654Z,7.09
2022-11-24T14:01:57.915Z,7.02
2022-11-24T14:05:01.063Z,6.91
2022-11-24T14:08:06.511Z,6.78
2022-11-24T14:11:19.257Z,6.70
2022-11-24T14:14:22.519Z,6.66
2022-11-24T14:17:28.624Z,6.57
2022-11-24T14:20:31.660Z,6.48
2022-11-24T14:23:34.629Z,6.43
2022-11-24T14:26:41.828Z,6.41
2022-11-24T14:29:59.499Z,6.39
2022-11-24T14:33:04.105Z,6.36
2022-11-24T14:36:15.531Z,6.35
2022-11-24T14:39:20.429Z,6.32
2022-11-24T14:42:25.689Z,6.28
2022-11-24T14:45:28.529Z,6.23
2022-11-24T14:48:36.016Z,6.18
2022-11-24T14:51:44.952Z,6.16
2022-11-24T14:54:54.725Z,6.11
2022-11-24T14:57:58.580Z,6.02
2022-11-24T15:01:10.270Z,5.85
2022-11-24T15:04:46.277Z,5.65
2022-11-24T15:07:49.107Z,5.52
2022-11-24T15:10:58.250Z,5.36
2022-11-24T15:14:01.247Z,5.31
2022-11-24T15:17:04.762Z,5.25
2022-11-24T15:20:32.277Z,5.18
2022-11-24T15:23:36.674Z,5.07
2022-11-24T15:26:42.110Z,5.04
2022-11-24T15:29:45.069Z,4.95
2022-11-24T15:32:58.542Z,4.90
2022-11-24T15:36:01.449Z,4.88
2022-11-24T15:39:04.563Z,4.83
2022-11-24T15:42:11.866Z,4.75
2022-11-24T15:45:14.887Z,4.75
2022-11-24T15:48:18.275Z,4.81
2022-11-24T15:51:24.166Z,4.87
2022-11-24T15:54:27.847Z,4.77
2022-11-24T15:57:34.566Z,4.65
2022-11-24T16:00:38.018Z,4.64
2022-11-24T16:03:49.080Z,4.69
2022-11-24T16:06:52.195Z,4.66
2022-11-24T16:09:55.105Z,4.78
2022-11-24T16:12:57.916Z,4.68
2022-11-24T16:16:01.304Z,4.77
2022-11-24T16:19:04.182Z,4.72
2022-11-24T16:22:09.098Z,4.74
2022-11-24T16:25:12.729Z,4.68
2022-11-24T16:28:17.327Z,4.70
2022-11-24T16:31:20.306Z,4.67
2022-11-24T16:34:23.388Z,4.54
2022-11-24T16:37:26.358Z,4.46
2022-11-24T16:40:29.750Z,4.25
2022-11-24T16:43:32.506Z,4.48
2022-11-24T16:46:35.517Z,4.61
2022-11-24T16:49:38.664Z,4.59
2022-11-24T16:52:41.993Z,4.55
2022-11-24T16:55:45.099Z,4.46
2022-11-24T16:58:48.556Z,4.56
2022-11-24T17:01:51.290Z,4.64
2022-11-24T17:04:54.291Z,4.62
2022-11-24T17:07:57.404Z,4.45
2022-11-24T17:11:21.668Z,4.21
2022-11-24T17:14:26.032Z,4.29
2022-11-24T17:17:29.148Z,4.15
2022-11-24T17:20:31.887Z,4.01
2022-11-24T17:23:37.173Z,4.18
2022-11-24T17:26:42.498Z,4.06
2022-11-24T17:29:49.405Z,4.19
2022-11-24T17:32:56.592Z,4.14
2022-11-24T17:36:05.123Z,4.12
2022-11-24T17:39:08.242Z,4.05
2022-11-24T17:42:11.501Z,3.93
2022-11-24T17:45:14.553Z,3.87
2022-11-24T17:48:17.539Z,3.76
2022-11-24T17:51:22.706Z,3.63
2022-11-24T17:57:49.051Z,3.51
2022-11-24T18:00:52.451Z,3.37
2022-11-24T18:03:55.478Z,3.32
2022-11-24T18:07:01.026Z,3.21
2022-11-24T18:10:04.873Z,3.26
2022-11-24T18:13:18.207Z,3.10
2022-11-24T18:16:35.218Z,3.11
2022-11-24T18:19:43.049Z,2.82
2022-11-24T18:26:12.228Z,2.63
2022-11-24T18:29:15.627Z,2.47
2022-11-24T18:32:18.761Z,2.62
2022-11-24T18:35:22.258Z,2.65
2022-11-24T18:38:25.978Z,2.72
2022-11-24T18:41:29.359Z,2.76
2022-11-24T18:44:32.693Z,2.76
2022-11-24T18:47:36.862Z,2.86
2022-11-24T18:50:39.916Z,2.94
2022-11-24T18:53:45.566Z,2.99
2022-11-24T18:56:48.597Z,2.97
2022-11-24T18:59:52.423Z,3.00
2022-11-24T19:02:55.695Z,3.09
2022-11-24T19:06:04.629Z,2.94
2022-11-24T19:09:20.547Z,2.91
2022-11-24T19:12:24.998Z,2.83
2022-11-24T19:15:28.147Z,2.74
2022-11-24T19:18:32.004Z,2.70
2022-11-24T19:21:38.179Z,2.83
2022-11-24T19:24:42.789Z,2.80
2022-11-24T19:27:45.971Z,2.76
2022-11-24T19:30:49.415Z,2.61
2022-11-24T19:33:54.731Z,2.37
2022-11-24T19:36:58.448Z,2.31
2022-11-24T19:40:02.964Z,2.45
2022-11-24T19:43:06.843Z,2.37
2022-11-24T19:46:13.024Z,2.59
2022-11-24T19:49:17.123Z,2.53
2022-11-24T19:52:20.039Z,2.59
2022-11-24T19:55:22.994Z,2.56
2022-11-24T20:05:01.502Z,2.50
2022-11-24T20:08:05.904Z,2.52
2022-11-24T20:11:13.350Z,2.44
2022-11-24T20:14:20.941Z,2.25
2022-11-24T20:17:30.226Z,2.08
2022-11-24T20:20:33.094Z,2.24
2022-11-24T20:23:37.216Z,2.27
2022-11-24T20:26:45.278Z,2.30
2022-11-24T20:29:48.378Z,2.36
2022-11-24T20:32:51.235Z,2.43
2022-11-24T20:35:54.901Z,2.51
2022-11-24T20:39:01.036Z,2.72
2022-11-24T20:42:04.535Z,2.67
2022-11-24T20:45:08.194Z,2.86
2022-11-24T20:48:15.705Z,2.79
2022-11-24T20:51:25.961Z,2.78
2022-11-24T20:54:29.603Z,2.53
2022-11-24T20:57:32.901Z,2.49
2022-11-24T21:00:36.387Z,2.52
2022-11-24T21:03:43.266Z,2.59
2022-11-24T21:06:47.573Z,2.48
2022-11-24T21:09:50.237Z,2.60
2022-11-24T21:12:54.659Z,2.80
2022-11-24T21:15:57.448Z,2.48
2022-11-24T21:19:04.694Z,2.54
2022-11-24T21:22:08.797Z,2.46
2022-11-24T21:25:12.304Z,2.42
2022-11-24T21:28:16.375Z,2.63
2022-11-24T21:31:21.895Z,2.38
2022-11-24T21:34:24.592Z,2.33
2022-11-24T21:37:27.397Z,2.46
2022-11-24T21:40:30.584Z,2.43
2022-11-24T21:43:36.303Z,2.51
2022-11-24T21:46:44.940Z,2.54
2022-11-24T21:49:48.896Z,2.52
2022-11-24T21:52:51.816Z,2.51
2022-11-24T21:55:56.303Z,2.77
2022-11-24T21:58:59.018Z,2.91
2022-11-24T22:02:02.017Z,3.11
2022-11-24T22:05:05.129Z,3.26
2022-11-24T22:08:07.783Z,3.06
2022-11-24T22:11:19.784Z,3.10
2022-11-24T22:14:22.428Z,3.20
2022-11-24T22:17:25.383Z,3.36
2022-11-24T22:20:27.986Z,3.43
2022-11-24T22:23:32.444Z,3.43
2022-11-24T22:26:36.031Z,3.65
2022-11-24T22:29:38.909Z,3.84
2022-11-24T22:32:41.606Z,4.11
2022-11-24T22:35:44.458Z,4.26
2022-11-24T22:38:47.711Z,4.26
2022-11-24T22:41:50.929Z,4.27
2022-11-24T22:44:53.553Z,4.43
2022-11-24T22:47:56.664Z,4.60
2022-11-24T22:51:20.066Z,4.62
2022-11-24T22:54:22.981Z,4.69
2022-11-24T22:57:25.715Z,4.84
2022-11-24T23:00:28.559Z,4.87
2022-11-24T23:03:32.512Z,4.78
2022-11-24T23:06:35.474Z,4.78
2022-11-24T23:09:38.146Z,4.80
2022-11-24T23:12:41.342Z,4.81
2022-11-24T23:15:44.018Z,4.68
2022-11-24T23:18:53.796Z,4.41
2022-11-24T23:21:56.756Z,4.31
2022-11-24T23:24:59.682Z,4.24
2022-11-24T23:28:02.370Z,4.14
2022-11-24T23:31:11.466Z,3.96
2022-11-24T23:34:14.103Z,3.99
2022-11-24T23:37:17.037Z,4.37
2022-11-24T23:40:19.702Z,4.26
2022-11-24T23:43:22.690Z,4.26
2022-11-24T23:46:26.960Z,4.32
2022-11-24T23:49:30.234Z,4.31
2022-11-24T23:52:32.885Z,4.17
2022-11-24T23:55:36.596Z,3.97
2022-11-24T23:58:39.209Z,3.85
